AAL9158 MMTO-MMMY
Flight info
| Callsign | AAL9158 |
|---|---|
| Flight time | 1h 22m |
| Altitude | 36000 |
| Route | KEBSO3A KEBSO DCT AXIRI UT138 TALPU UJ41 CVM UJ15E RETOS |
| Aircraft | A321/M-SDE3FGHIRWY/LB1 |
Departure
| Time | 2026-04-25 06:01 |
|---|---|
| Airport | Adolfo López Mateos International Airport (MMTO) |
Arrival
| Time | 2026-04-25 07:23 |
|---|---|
| Airport | Monterrey International Airport (MMMY) |
| Time | Latitude | Longitude | Altitude | Speed | Heading |
|---|---|---|---|---|---|
| 2026-04-25 05:39 | 19.33905 | -99.56984 | 8491 ft | 0 kts | 247° |
| 2026-04-25 05:51 | 19.33905 | -99.56983 | 8491 ft | 1 kts | 247° |
| 2026-04-25 05:51 | 19.33915 | -99.56961 | 8494 ft | 4 kts | 241° |
| 2026-04-25 05:51 | 19.33929 | -99.56937 | 8495 ft | 4 kts | 230° |
| 2026-04-25 05:51 | 19.33949 | -99.56919 | 8491 ft | 4 kts | 199° |
| 2026-04-25 05:52 | 19.33965 | -99.56917 | 8494 ft | 0 kts | 156° |
| 2026-04-25 05:54 | 19.33960 | -99.56915 | 8491 ft | 3 kts | 156° |
| 2026-04-25 05:54 | 19.33921 | -99.56897 | 8491 ft | 8 kts | 156° |
| 2026-04-25 05:54 | 19.33806 | -99.56845 | 8491 ft | 11 kts | 157° |
| 2026-04-25 05:55 | 19.33729 | -99.56810 | 8491 ft | 12 kts | 157° |
| 2026-04-25 05:55 | 19.33655 | -99.56777 | 8491 ft | 12 kts | 157° |
| 2026-04-25 05:55 | 19.33569 | -99.56738 | 8491 ft | 15 kts | 157° |
| 2026-04-25 05:55 | 19.33468 | -99.56692 | 8491 ft | 15 kts | 156° |
| 2026-04-25 05:56 | 19.33372 | -99.56649 | 8494 ft | 14 kts | 156° |
| 2026-04-25 05:56 | 19.33286 | -99.56610 | 8495 ft | 13 kts | 157° |
| 2026-04-25 05:56 | 19.33198 | -99.56571 | 8495 ft | 14 kts | 157° |
| 2026-04-25 05:56 | 19.33097 | -99.56523 | 8492 ft | 17 kts | 155° |
| 2026-04-25 05:57 | 19.32976 | -99.56466 | 8494 ft | 20 kts | 158° |
| 2026-04-25 05:57 | 19.32839 | -99.56406 | 8492 ft | 23 kts | 158° |
| 2026-04-25 05:57 | 19.32691 | -99.56340 | 8493 ft | 24 kts | 156° |
| 2026-04-25 05:57 | 19.32528 | -99.56266 | 8495 ft | 27 kts | 156° |
| 2026-04-25 05:58 | 19.32352 | -99.56184 | 8492 ft | 28 kts | 156° |
| 2026-04-25 05:58 | 19.32187 | -99.56110 | 8493 ft | 24 kts | 157° |
| 2026-04-25 05:58 | 19.32063 | -99.56055 | 8491 ft | 11 kts | 155° |
| 2026-04-25 05:58 | 19.31990 | -99.56021 | 8495 ft | 8 kts | 157° |
| 2026-04-25 05:59 | 19.31962 | -99.55964 | 8493 ft | 11 kts | 75° |
| 2026-04-25 05:59 | 19.31995 | -99.55885 | 8493 ft | 12 kts | 62° |
| 2026-04-25 05:59 | 19.32074 | -99.55864 | 8494 ft | 13 kts | 336° |
| 2026-04-25 05:59 | 19.32094 | -99.55874 | 8494 ft | 6 kts | 336° |
| 2026-04-25 06:00 | 19.32306 | -99.55970 | 8495 ft | 67 kts | 337° |
| 2026-04-25 06:00 | 19.32931 | -99.56253 | 8495 ft | 126 kts | 336° |
| 2026-04-25 06:00 | 19.33898 | -99.56689 | 8491 ft | 171 kts | 337° |
| 2026-04-25 06:00 | 19.35095 | -99.57234 | 8608 ft | 191 kts | 336° |
| 2026-04-25 06:01 | 19.36246 | -99.57796 | 9365 ft | 176 kts | 335° |
| 2026-04-25 06:01 | 19.37331 | -99.58332 | 9905 ft | 176 kts | 336° |
| 2026-04-25 06:01 | 19.38491 | -99.58869 | 10202 ft | 187 kts | 339° |
| 2026-04-25 06:01 | 19.39748 | -99.59418 | 10360 ft | 204 kts | 339° |
| 2026-04-25 06:02 | 19.41119 | -99.60016 | 10493 ft | 221 kts | 337° |
| 2026-04-25 06:02 | 19.42589 | -99.60664 | 10639 ft | 236 kts | 336° |
| 2026-04-25 06:02 | 19.44140 | -99.61353 | 10859 ft | 245 kts | 338° |
| 2026-04-25 06:02 | 19.45728 | -99.62063 | 11140 ft | 251 kts | 336° |
| 2026-04-25 06:03 | 19.47354 | -99.62794 | 11560 ft | 256 kts | 336° |
| 2026-04-25 06:03 | 19.48984 | -99.63696 | 11759 ft | 271 kts | 317° |
| 2026-04-25 06:03 | 19.50005 | -99.65363 | 12140 ft | 277 kts | 284° |
| 2026-04-25 06:03 | 19.49975 | -99.67399 | 12566 ft | 283 kts | 251° |
| 2026-04-25 06:04 | 19.48944 | -99.69181 | 13006 ft | 288 kts | 229° |
| 2026-04-25 06:04 | 19.47483 | -99.70652 | 13492 ft | 292 kts | 220° |
| 2026-04-25 06:04 | 19.45886 | -99.71984 | 13985 ft | 294 kts | 218° |
| 2026-04-25 06:04 | 19.44248 | -99.73304 | 14481 ft | 297 kts | 219° |
| 2026-04-25 06:05 | 19.42622 | -99.74658 | 14993 ft | 298 kts | 220° |
| 2026-04-25 06:05 | 19.41015 | -99.76059 | 15483 ft | 300 kts | 221° |
| 2026-04-25 06:05 | 19.39422 | -99.77506 | 15968 ft | 302 kts | 222° |
| 2026-04-25 06:05 | 19.37841 | -99.78983 | 16443 ft | 304 kts | 223° |
| 2026-04-25 06:06 | 19.36151 | -99.80386 | 16680 ft | 317 kts | 209° |
| 2026-04-25 06:06 | 19.34011 | -99.81101 | 16813 ft | 332 kts | 185° |
| 2026-04-25 06:06 | 19.31691 | -99.80811 | 16941 ft | 345 kts | 159° |
| 2026-04-25 06:06 | 19.29625 | -99.79454 | 17076 ft | 357 kts | 133° |
| 2026-04-25 06:07 | 19.28294 | -99.77225 | 17199 ft | 366 kts | 107° |
| 2026-04-25 06:07 | 19.27888 | -99.74550 | 17328 ft | 376 kts | 92° |
| 2026-04-25 06:07 | 19.27742 | -99.71779 | 17452 ft | 387 kts | 91° |
| 2026-04-25 06:07 | 19.27649 | -99.68897 | 17686 ft | 395 kts | 90° |
| 2026-04-25 06:08 | 19.27573 | -99.65942 | 18069 ft | 398 kts | 90° |
| 2026-04-25 06:08 | 19.27493 | -99.63037 | 18476 ft | 401 kts | 90° |
| 2026-04-25 06:08 | 19.27397 | -99.60076 | 18867 ft | 404 kts | 91° |
| 2026-04-25 06:08 | 19.27289 | -99.57094 | 19236 ft | 407 kts | 91° |
| 2026-04-25 06:09 | 19.27170 | -99.54093 | 19592 ft | 409 kts | 91° |
| 2026-04-25 06:09 | 19.27044 | -99.51075 | 19941 ft | 412 kts | 91° |
| 2026-04-25 06:09 | 19.26915 | -99.48035 | 20276 ft | 415 kts | 91° |
| 2026-04-25 06:09 | 19.26786 | -99.44972 | 20612 ft | 418 kts | 91° |
| 2026-04-25 06:10 | 19.26655 | -99.41888 | 20951 ft | 421 kts | 91° |
| 2026-04-25 06:10 | 19.26524 | -99.38788 | 21279 ft | 423 kts | 91° |
| 2026-04-25 06:10 | 19.26393 | -99.35662 | 21601 ft | 426 kts | 91° |
| 2026-04-25 06:10 | 19.26263 | -99.32525 | 21900 ft | 428 kts | 91° |
| 2026-04-25 06:11 | 19.26132 | -99.29366 | 22188 ft | 430 kts | 91° |
| 2026-04-25 06:11 | 19.26000 | -99.26217 | 22679 ft | 427 kts | 91° |
| 2026-04-25 06:11 | 19.25866 | -99.23077 | 23025 ft | 428 kts | 91° |
| 2026-04-25 06:11 | 19.25732 | -99.19920 | 23329 ft | 430 kts | 91° |
| 2026-04-25 06:12 | 19.25599 | -99.16749 | 23624 ft | 432 kts | 91° |
| 2026-04-25 06:12 | 19.25467 | -99.13559 | 23906 ft | 434 kts | 90° |
| 2026-04-25 06:12 | 19.25717 | -99.10384 | 24166 ft | 433 kts | 75° |
| 2026-04-25 06:12 | 19.26768 | -99.07421 | 24427 ft | 431 kts | 58° |
| 2026-04-25 06:13 | 19.28543 | -99.04895 | 24676 ft | 428 kts | 42° |
| 2026-04-25 06:13 | 19.30895 | -99.02987 | 24918 ft | 425 kts | 26° |
| 2026-04-25 06:13 | 19.33608 | -99.01848 | 25361 ft | 417 kts | 11° |
| 2026-04-25 06:14 | 19.39320 | -99.01606 | 26050 ft | 412 kts | 355° |
| 2026-04-25 06:14 | 19.42187 | -99.01760 | 26338 ft | 414 kts | 354° |
| 2026-04-25 06:14 | 19.45075 | -99.01921 | 26606 ft | 416 kts | 354° |
| 2026-04-25 06:14 | 19.47979 | -99.02085 | 26879 ft | 418 kts | 354° |
| 2026-04-25 06:15 | 19.50889 | -99.02250 | 27142 ft | 420 kts | 354° |
| 2026-04-25 06:15 | 19.53814 | -99.02413 | 27400 ft | 422 kts | 354° |
| 2026-04-25 06:15 | 19.56747 | -99.02575 | 27656 ft | 424 kts | 354° |
| 2026-04-25 06:15 | 19.59662 | -99.02732 | 27902 ft | 425 kts | 354° |
| 2026-04-25 06:16 | 19.62669 | -99.02891 | 28162 ft | 427 kts | 354° |
| 2026-04-25 06:16 | 19.65600 | -99.03044 | 28407 ft | 429 kts | 354° |
| 2026-04-25 06:16 | 19.68588 | -99.03201 | 28656 ft | 431 kts | 354° |
| 2026-04-25 06:16 | 19.71592 | -99.03362 | 28898 ft | 433 kts | 353° |
| 2026-04-25 06:17 | 19.74610 | -99.03526 | 29138 ft | 434 kts | 353° |
| 2026-04-25 06:17 | 19.77634 | -99.03688 | 29365 ft | 436 kts | 353° |
| 2026-04-25 06:17 | 19.80674 | -99.03851 | 29599 ft | 438 kts | 353° |
| 2026-04-25 06:17 | 19.83728 | -99.04016 | 29828 ft | 440 kts | 353° |
| 2026-04-25 06:18 | 19.86790 | -99.04183 | 30065 ft | 442 kts | 353° |
| 2026-04-25 06:18 | 19.89867 | -99.04349 | 30302 ft | 444 kts | 353° |
| 2026-04-25 06:18 | 19.92951 | -99.04516 | 30608 ft | 443 kts | 353° |
| 2026-04-25 06:18 | 19.96022 | -99.04682 | 30940 ft | 442 kts | 353° |
| 2026-04-25 06:19 | 19.99097 | -99.04848 | 31260 ft | 442 kts | 353° |
| 2026-04-25 06:19 | 20.02164 | -99.05014 | 31565 ft | 441 kts | 352° |
| 2026-04-25 06:19 | 20.05231 | -99.05180 | 31909 ft | 439 kts | 352° |
| 2026-04-25 06:19 | 20.08281 | -99.05347 | 32243 ft | 438 kts | 352° |
| 2026-04-25 06:20 | 20.11320 | -99.05513 | 32574 ft | 437 kts | 352° |
| 2026-04-25 06:20 | 20.14353 | -99.05678 | 32875 ft | 436 kts | 352° |
| 2026-04-25 06:20 | 20.17351 | -99.05837 | 33182 ft | 436 kts | 352° |
| 2026-04-25 06:20 | 20.20373 | -99.05995 | 33471 ft | 435 kts | 352° |
| 2026-04-25 06:21 | 20.23390 | -99.06155 | 33744 ft | 434 kts | 352° |
| 2026-04-25 06:21 | 20.26408 | -99.06319 | 34020 ft | 434 kts | 352° |
| 2026-04-25 06:21 | 20.29424 | -99.06487 | 34292 ft | 433 kts | 352° |
| 2026-04-25 06:21 | 20.32431 | -99.06654 | 34580 ft | 432 kts | 352° |
| 2026-04-25 06:22 | 20.35436 | -99.06819 | 34819 ft | 431 kts | 352° |
| 2026-04-25 06:22 | 20.38424 | -99.06983 | 35076 ft | 430 kts | 352° |
| 2026-04-25 06:22 | 20.41415 | -99.07143 | 35321 ft | 430 kts | 352° |
| 2026-04-25 06:22 | 20.44404 | -99.07255 | 35563 ft | 431 kts | 356° |
| 2026-04-25 06:23 | 20.47416 | -99.07115 | 35796 ft | 432 kts | 358° |
| 2026-04-25 06:23 | 20.50417 | -99.06958 | 36011 ft | 432 kts | 358° |
| 2026-04-25 06:23 | 20.53412 | -99.06800 | 36185 ft | 431 kts | 358° |
| 2026-04-25 06:24 | 20.59412 | -99.06494 | 36248 ft | 431 kts | 358° |
| 2026-04-25 06:24 | 20.65401 | -99.06195 | 36234 ft | 431 kts | 358° |
| 2026-04-25 06:25 | 20.71377 | -99.05899 | 36168 ft | 431 kts | 358° |
| 2026-04-25 06:25 | 20.77454 | -99.05597 | 36030 ft | 444 kts | 358° |
| 2026-04-25 06:26 | 20.83696 | -99.05276 | 36046 ft | 453 kts | 358° |
| 2026-04-25 06:26 | 20.90036 | -99.04945 | 36043 ft | 457 kts | 358° |
| 2026-04-25 06:27 | 20.96408 | -99.04618 | 36041 ft | 458 kts | 358° |
| 2026-04-25 06:27 | 21.02778 | -99.04288 | 36050 ft | 458 kts | 358° |
| 2026-04-25 06:28 | 21.09109 | -99.03970 | 36043 ft | 459 kts | 358° |
| 2026-04-25 06:28 | 21.15496 | -99.03648 | 36051 ft | 460 kts | 358° |
| 2026-04-25 06:29 | 21.21870 | -99.03321 | 36055 ft | 459 kts | 358° |
| 2026-04-25 06:29 | 21.28276 | -99.02992 | 36051 ft | 460 kts | 358° |
| 2026-04-25 06:30 | 21.34679 | -99.02663 | 36057 ft | 460 kts | 358° |
| 2026-04-25 06:30 | 21.41066 | -99.02336 | 36051 ft | 459 kts | 358° |
| 2026-04-25 06:31 | 21.47451 | -99.02009 | 36045 ft | 459 kts | 358° |
| 2026-04-25 06:31 | 21.53845 | -99.01678 | 36052 ft | 460 kts | 357° |
| 2026-04-25 06:32 | 21.60231 | -99.01350 | 36033 ft | 459 kts | 358° |
| 2026-04-25 06:32 | 21.65535 | -99.01078 | 36031 ft | 460 kts | 358° |
| 2026-04-25 06:33 | 21.71924 | -99.00744 | 36028 ft | 460 kts | 358° |
| 2026-04-25 06:33 | 21.78320 | -99.00412 | 36021 ft | 460 kts | 358° |
| 2026-04-25 06:34 | 21.84718 | -99.00085 | 36019 ft | 460 kts | 357° |
| 2026-04-25 06:34 | 21.91109 | -98.99766 | 36012 ft | 460 kts | 357° |
| 2026-04-25 06:35 | 21.97493 | -98.99440 | 36006 ft | 459 kts | 358° |
| 2026-04-25 06:35 | 22.03881 | -98.99100 | 36003 ft | 459 kts | 357° |
| 2026-04-25 06:36 | 22.10263 | -98.98762 | 36000 ft | 459 kts | 357° |
| 2026-04-25 06:36 | 22.16638 | -98.98434 | 35993 ft | 458 kts | 357° |
| 2026-04-25 06:37 | 22.22983 | -98.98104 | 35922 ft | 455 kts | 357° |
| 2026-04-25 06:37 | 22.29320 | -98.97772 | 35920 ft | 456 kts | 357° |
| 2026-04-25 06:38 | 22.35659 | -98.97449 | 35919 ft | 456 kts | 357° |
| 2026-04-25 06:38 | 22.41999 | -98.97125 | 35918 ft | 457 kts | 357° |
| 2026-04-25 06:39 | 22.48357 | -98.96801 | 35919 ft | 457 kts | 357° |
| 2026-04-25 06:39 | 22.54705 | -98.96471 | 35919 ft | 456 kts | 357° |
| 2026-04-25 06:40 | 22.61048 | -98.96133 | 35921 ft | 456 kts | 357° |
| 2026-04-25 06:40 | 22.67391 | -98.95791 | 35920 ft | 456 kts | 357° |
| 2026-04-25 06:41 | 22.73727 | -98.95456 | 35921 ft | 456 kts | 356° |
| 2026-04-25 06:41 | 22.80064 | -98.95128 | 35921 ft | 456 kts | 356° |
| 2026-04-25 06:42 | 22.86370 | -98.94803 | 35919 ft | 456 kts | 356° |
| 2026-04-25 06:42 | 22.92717 | -98.94477 | 35920 ft | 456 kts | 356° |
| 2026-04-25 06:43 | 22.99054 | -98.94141 | 35927 ft | 456 kts | 356° |
| 2026-04-25 06:43 | 23.05386 | -98.93807 | 35930 ft | 456 kts | 356° |
| 2026-04-25 06:44 | 23.11725 | -98.93474 | 35930 ft | 455 kts | 356° |
| 2026-04-25 06:44 | 23.18053 | -98.93141 | 35928 ft | 455 kts | 356° |
| 2026-04-25 06:45 | 23.24379 | -98.92810 | 35930 ft | 455 kts | 356° |
| 2026-04-25 06:45 | 23.30697 | -98.92473 | 35928 ft | 455 kts | 356° |
| 2026-04-25 06:46 | 23.36937 | -98.92808 | 35930 ft | 447 kts | 349° |
| 2026-04-25 06:46 | 23.43142 | -98.93380 | 35928 ft | 447 kts | 348° |
| 2026-04-25 06:47 | 23.49311 | -98.93948 | 35927 ft | 447 kts | 348° |
| 2026-04-25 06:47 | 23.55504 | -98.94515 | 35928 ft | 447 kts | 349° |
| 2026-04-25 06:48 | 23.61698 | -98.95088 | 35929 ft | 446 kts | 348° |
| 2026-04-25 06:48 | 23.67888 | -98.95661 | 35928 ft | 447 kts | 348° |
| 2026-04-25 06:49 | 23.74077 | -98.96262 | 35932 ft | 446 kts | 347° |
| 2026-04-25 06:49 | 23.80240 | -98.96997 | 35933 ft | 445 kts | 347° |
| 2026-04-25 06:50 | 23.86394 | -98.97763 | 35935 ft | 445 kts | 347° |
| 2026-04-25 06:50 | 23.92553 | -98.98506 | 35932 ft | 445 kts | 347° |
| 2026-04-25 06:51 | 23.98721 | -98.99233 | 35930 ft | 445 kts | 347° |
| 2026-04-25 06:51 | 24.04881 | -98.99955 | 35934 ft | 445 kts | 347° |
| 2026-04-25 06:52 | 24.11028 | -99.00676 | 35936 ft | 444 kts | 346° |
| 2026-04-25 06:52 | 24.17168 | -99.01404 | 35934 ft | 443 kts | 346° |
| 2026-04-25 06:53 | 24.23302 | -99.02132 | 35934 ft | 443 kts | 346° |
| 2026-04-25 06:53 | 24.29426 | -99.02868 | 35934 ft | 443 kts | 346° |
| 2026-04-25 06:54 | 24.35553 | -99.03603 | 35931 ft | 443 kts | 346° |
| 2026-04-25 06:54 | 24.41673 | -99.04334 | 35927 ft | 442 kts | 346° |
| 2026-04-25 06:55 | 24.47789 | -99.05058 | 35924 ft | 442 kts | 346° |
| 2026-04-25 06:55 | 24.53917 | -99.05792 | 35243 ft | 447 kts | 346° |
| 2026-04-25 06:55 | 24.57032 | -99.06173 | 34196 ft | 454 kts | 346° |
| 2026-04-25 06:56 | 24.60184 | -99.06556 | 33188 ft | 457 kts | 347° |
| 2026-04-25 06:56 | 24.63359 | -99.06939 | 32156 ft | 461 kts | 347° |
| 2026-04-25 06:56 | 24.66564 | -99.07324 | 31136 ft | 465 kts | 347° |
| 2026-04-25 06:56 | 24.69750 | -99.07706 | 30084 ft | 468 kts | 347° |
| 2026-04-25 06:57 | 24.72995 | -99.08094 | 28977 ft | 471 kts | 347° |
| 2026-04-25 06:57 | 24.76261 | -99.08482 | 27786 ft | 474 kts | 348° |
| 2026-04-25 06:57 | 24.79551 | -99.08873 | 26541 ft | 477 kts | 348° |
| 2026-04-25 06:57 | 24.82865 | -99.09266 | 25212 ft | 480 kts | 348° |
| 2026-04-25 06:58 | 24.86185 | -99.09663 | 24177 ft | 478 kts | 349° |
| 2026-04-25 06:58 | 24.89446 | -99.10118 | 23414 ft | 465 kts | 344° |
| 2026-04-25 06:58 | 24.92505 | -99.11193 | 22598 ft | 449 kts | 331° |
| 2026-04-25 06:58 | 24.95110 | -99.12867 | 21864 ft | 426 kts | 324° |
| 2026-04-25 06:59 | 24.97526 | -99.14562 | 21162 ft | 398 kts | 324° |
| 2026-04-25 06:59 | 24.99792 | -99.16160 | 20470 ft | 375 kts | 323° |
| 2026-04-25 06:59 | 25.01928 | -99.17679 | 19774 ft | 358 kts | 323° |
| 2026-04-25 06:59 | 25.03997 | -99.19159 | 19064 ft | 352 kts | 323° |
| 2026-04-25 07:00 | 25.06038 | -99.20627 | 18371 ft | 349 kts | 323° |
| 2026-04-25 07:00 | 25.08064 | -99.22087 | 17672 ft | 346 kts | 323° |
| 2026-04-25 07:00 | 25.10071 | -99.23527 | 16963 ft | 343 kts | 323° |
| 2026-04-25 07:00 | 25.12054 | -99.24943 | 16505 ft | 337 kts | 323° |
| 2026-04-25 07:01 | 25.14036 | -99.26357 | 16372 ft | 340 kts | 324° |
| 2026-04-25 07:01 | 25.16024 | -99.27778 | 16380 ft | 341 kts | 324° |
| 2026-04-25 07:01 | 25.18019 | -99.29203 | 16386 ft | 342 kts | 324° |
| 2026-04-25 07:01 | 25.20017 | -99.30634 | 16382 ft | 342 kts | 324° |
| 2026-04-25 07:02 | 25.22013 | -99.32065 | 16372 ft | 342 kts | 324° |
| 2026-04-25 07:02 | 25.24010 | -99.33493 | 16384 ft | 343 kts | 324° |
| 2026-04-25 07:02 | 25.26013 | -99.34921 | 16381 ft | 343 kts | 324° |
| 2026-04-25 07:02 | 25.28015 | -99.36352 | 16377 ft | 343 kts | 324° |
| 2026-04-25 07:03 | 25.30018 | -99.37788 | 16373 ft | 342 kts | 324° |
| 2026-04-25 07:03 | 25.32020 | -99.39223 | 16377 ft | 343 kts | 324° |
| 2026-04-25 07:03 | 25.34014 | -99.40654 | 16380 ft | 342 kts | 323° |
| 2026-04-25 07:03 | 25.36012 | -99.42088 | 16382 ft | 342 kts | 323° |
| 2026-04-25 07:04 | 25.38008 | -99.43522 | 16375 ft | 342 kts | 323° |
| 2026-04-25 07:04 | 25.40009 | -99.44956 | 16373 ft | 342 kts | 323° |
| 2026-04-25 07:04 | 25.42002 | -99.46388 | 16376 ft | 342 kts | 323° |
| 2026-04-25 07:04 | 25.43997 | -99.47826 | 16371 ft | 342 kts | 323° |
| 2026-04-25 07:05 | 25.45991 | -99.49263 | 16377 ft | 342 kts | 323° |
| 2026-04-25 07:05 | 25.47997 | -99.50706 | 16236 ft | 343 kts | 323° |
| 2026-04-25 07:05 | 25.49989 | -99.52138 | 16008 ft | 341 kts | 323° |
| 2026-04-25 07:05 | 25.51975 | -99.53567 | 15991 ft | 341 kts | 323° |
| 2026-04-25 07:06 | 25.53965 | -99.54999 | 15998 ft | 341 kts | 323° |
| 2026-04-25 07:06 | 25.55875 | -99.56492 | 15998 ft | 338 kts | 315° |
| 2026-04-25 07:06 | 25.57563 | -99.58349 | 15750 ft | 337 kts | 312° |
| 2026-04-25 07:06 | 25.59201 | -99.60195 | 15399 ft | 335 kts | 312° |
| 2026-04-25 07:07 | 25.60795 | -99.62000 | 15053 ft | 327 kts | 311° |
| 2026-04-25 07:07 | 25.62366 | -99.63780 | 14700 ft | 319 kts | 312° |
| 2026-04-25 07:07 | 25.63872 | -99.65485 | 14336 ft | 300 kts | 312° |
| 2026-04-25 07:07 | 25.65327 | -99.67131 | 14042 ft | 297 kts | 312° |
| 2026-04-25 07:08 | 25.66769 | -99.68765 | 14016 ft | 299 kts | 312° |
| 2026-04-25 07:08 | 25.68222 | -99.70413 | 14007 ft | 298 kts | 311° |
| 2026-04-25 07:08 | 25.69675 | -99.72059 | 14011 ft | 299 kts | 312° |
| 2026-04-25 07:08 | 25.71127 | -99.73703 | 14012 ft | 299 kts | 312° |
| 2026-04-25 07:09 | 25.72582 | -99.75353 | 14010 ft | 299 kts | 312° |
| 2026-04-25 07:09 | 25.74036 | -99.77003 | 14009 ft | 298 kts | 311° |
| 2026-04-25 07:09 | 25.75486 | -99.78650 | 14011 ft | 298 kts | 311° |
| 2026-04-25 07:09 | 25.76931 | -99.80292 | 14005 ft | 298 kts | 311° |
| 2026-04-25 07:10 | 25.78381 | -99.81939 | 14011 ft | 298 kts | 312° |
| 2026-04-25 07:10 | 25.79834 | -99.83587 | 14005 ft | 298 kts | 312° |
| 2026-04-25 07:10 | 25.81284 | -99.85232 | 14003 ft | 298 kts | 311° |
| 2026-04-25 07:10 | 25.82732 | -99.86880 | 14011 ft | 298 kts | 311° |
| 2026-04-25 07:11 | 25.84180 | -99.88528 | 14003 ft | 298 kts | 311° |
| 2026-04-25 07:11 | 25.85625 | -99.90172 | 14012 ft | 298 kts | 311° |
| 2026-04-25 07:11 | 25.87074 | -99.91822 | 14002 ft | 298 kts | 311° |
| 2026-04-25 07:11 | 25.88523 | -99.93476 | 14008 ft | 298 kts | 311° |
| 2026-04-25 07:12 | 25.89966 | -99.95122 | 13995 ft | 298 kts | 311° |
| 2026-04-25 07:12 | 25.92750 | -99.98496 | 13291 ft | 291 kts | 301° |
| 2026-04-25 07:12 | 25.93831 | -100.00380 | 12947 ft | 287 kts | 301° |
| 2026-04-25 07:13 | 25.94893 | -100.02241 | 12600 ft | 284 kts | 301° |
| 2026-04-25 07:13 | 25.95937 | -100.04071 | 12492 ft | 281 kts | 301° |
| 2026-04-25 07:13 | 25.96988 | -100.05916 | 12504 ft | 283 kts | 301° |
| 2026-04-25 07:13 | 25.98045 | -100.07766 | 12507 ft | 283 kts | 301° |
| 2026-04-25 07:14 | 25.98748 | -100.08996 | 12329 ft | 285 kts | 301° |
| 2026-04-25 07:14 | 26.00149 | -100.11448 | 11862 ft | 282 kts | 301° |
| 2026-04-25 07:14 | 26.01198 | -100.13291 | 11510 ft | 281 kts | 301° |
| 2026-04-25 07:14 | 26.02241 | -100.15125 | 11159 ft | 281 kts | 301° |
| 2026-04-25 07:15 | 26.03283 | -100.16960 | 10808 ft | 280 kts | 301° |
| 2026-04-25 07:15 | 26.04310 | -100.18805 | 10457 ft | 280 kts | 297° |
| 2026-04-25 07:15 | 26.04762 | -100.20863 | 10110 ft | 276 kts | 265° |
| 2026-04-25 07:15 | 26.04448 | -100.22223 | 9872 ft | 275 kts | 243° |
| 2026-04-25 07:16 | 26.03222 | -100.23822 | 9543 ft | 272 kts | 219° |
| 2026-04-25 07:16 | 26.01651 | -100.24947 | 9198 ft | 266 kts | 209° |
| 2026-04-25 07:16 | 26.00015 | -100.25874 | 8831 ft | 261 kts | 207° |
| 2026-04-25 07:16 | 25.98398 | -100.26760 | 8492 ft | 257 kts | 207° |
| 2026-04-25 07:17 | 25.96827 | -100.27664 | 8138 ft | 252 kts | 208° |
| 2026-04-25 07:17 | 25.95301 | -100.28591 | 7786 ft | 248 kts | 210° |
| 2026-04-25 07:17 | 25.93813 | -100.29532 | 7441 ft | 244 kts | 211° |
| 2026-04-25 07:17 | 25.92364 | -100.30476 | 7087 ft | 240 kts | 211° |
| 2026-04-25 07:18 | 25.90891 | -100.31307 | 6724 ft | 236 kts | 193° |
| 2026-04-25 07:18 | 25.89298 | -100.31149 | 6388 ft | 234 kts | 154° |
| 2026-04-25 07:18 | 25.88106 | -100.29967 | 6035 ft | 231 kts | 126° |
| 2026-04-25 07:18 | 25.87235 | -100.28472 | 5669 ft | 230 kts | 120° |
| 2026-04-25 07:19 | 25.86464 | -100.26921 | 5314 ft | 228 kts | 119° |
| 2026-04-25 07:19 | 25.85711 | -100.25382 | 4967 ft | 225 kts | 119° |
| 2026-04-25 07:19 | 25.84962 | -100.23889 | 4623 ft | 216 kts | 120° |
| 2026-04-25 07:19 | 25.84248 | -100.22502 | 4291 ft | 196 kts | 121° |
| 2026-04-25 07:20 | 25.83594 | -100.21244 | 3833 ft | 182 kts | 120° |
| 2026-04-25 07:20 | 25.82991 | -100.20063 | 3455 ft | 170 kts | 120° |
| 2026-04-25 07:20 | 25.82443 | -100.18941 | 3081 ft | 161 kts | 119° |
| 2026-04-25 07:20 | 25.81879 | -100.17880 | 2738 ft | 160 kts | 123° |
| 2026-04-25 07:21 | 25.81287 | -100.16847 | 2453 ft | 155 kts | 122° |
| 2026-04-25 07:21 | 25.80709 | -100.15848 | 2189 ft | 153 kts | 121° |
| 2026-04-25 07:21 | 25.80148 | -100.14873 | 1985 ft | 151 kts | 121° |
| 2026-04-25 07:21 | 25.79608 | -100.13879 | 1768 ft | 150 kts | 119° |
| 2026-04-25 07:22 | 25.79083 | -100.12887 | 1573 ft | 148 kts | 121° |
| 2026-04-25 07:22 | 25.78539 | -100.11934 | 1406 ft | 144 kts | 122° |
| 2026-04-25 07:22 | 25.78031 | -100.11021 | 1283 ft | 129 kts | 121° |
| 2026-04-25 07:22 | 25.77645 | -100.10310 | 1279 ft | 84 kts | 121° |
| 2026-04-25 07:23 | 25.77396 | -100.09855 | 1272 ft | 41 kts | 121° |
| 2026-04-25 07:23 | 25.77280 | -100.09697 | 1267 ft | 17 kts | 175° |
| 2026-04-25 07:23 | 25.77176 | -100.09747 | 1268 ft | 11 kts | 210° |
| 2026-04-25 07:23 | 25.77154 | -100.09820 | 1268 ft | 11 kts | 292° |
| 2026-04-25 07:24 | 25.77197 | -100.09903 | 1270 ft | 15 kts | 302° |
| 2026-04-25 07:24 | 25.77263 | -100.10025 | 1273 ft | 21 kts | 301° |
| 2026-04-25 07:24 | 25.77354 | -100.10187 | 1274 ft | 27 kts | 302° |
| 2026-04-25 07:24 | 25.77462 | -100.10383 | 1278 ft | 32 kts | 301° |
| 2026-04-25 07:25 | 25.77576 | -100.10592 | 1279 ft | 30 kts | 301° |
| 2026-04-25 07:25 | 25.77677 | -100.10776 | 1280 ft | 27 kts | 301° |
| 2026-04-25 07:25 | 25.77775 | -100.10954 | 1280 ft | 26 kts | 301° |
| 2026-04-25 07:25 | 25.77861 | -100.11108 | 1281 ft | 20 kts | 301° |
| 2026-04-25 07:26 | 25.77879 | -100.11195 | 1281 ft | 7 kts | 233° |
| 2026-04-25 07:26 | 25.77845 | -100.11221 | 1281 ft | 5 kts | 210° |
| 2026-04-25 07:26 | 25.77823 | -100.11235 | 1281 ft | 1 kts | 211° |
| 2026-04-25 07:26 | 25.77822 | -100.11236 | 1282 ft | 0 kts | 211° |